Time;durP1;ratioP1;P1;durP2;ratioP2;P2;SDS_P1;SDS_P2;PMS_P1;PMS_P2;Temp;Humidity;BMP_temperature;BMP_pressure;BME280_temperature;BME280_humidity;BME280_pressure;Samples;Min_cycle;Max_cycle;Signal;HPM_P1;HPM_P2
2021/03/21 00:00:13;;;;;;;6.05;0.95;;;;;;;14.93;59.25;100692.19;4972513;28;20043;-65
2021/03/21 00:02:40;;;;;;;4.55;0.80;;;;;;;14.94;58.88;100696.63;4972930;28;20122;-64
2021/03/21 00:05:08;;;;;;;6.28;1.05;;;;;;;14.95;58.82;100684.22;4974292;28;20134;-64
2021/03/21 00:07:35;;;;;;;4.00;1.10;;;;;;;14.94;58.60;100693.06;4972047;28;20053;-64
2021/03/21 00:10:05;;;;;;;1.63;0.50;;;;;;;14.95;58.86;100679.78;4972187;28;20129;-64
2021/03/21 00:12:33;;;;;;;5.45;1.05;;;;;;;14.96;58.71;100678.91;4973530;28;20145;-64
2021/03/21 00:15:21;;;;;;;3.22;0.43;;;;;;;14.96;58.88;100662.94;4972298;28;20039;-64
2021/03/21 00:17:49;;;;;;;6.03;0.85;;;;;;;15.03;58.53;100662.00;4957330;28;20121;-65
2021/03/21 00:20:19;;;;;;;4.50;1.13;;;;;;;14.97;58.77;100658.47;4971194;28;20050;-65
2021/03/21 00:22:46;;;;;;;3.08;0.50;;;;;;;14.97;58.64;100654.06;4973430;28;20041;-65
2021/03/21 00:25:16;;;;;;;2.45;0.77;;;;;;;15.03;58.26;100645.19;4971623;28;20043;-65
2021/03/21 00:27:45;;;;;;;4.03;0.88;;;;;;;15.09;57.43;100640.75;4973234;28;20611;-64
2021/03/21 00:30:16;;;;;;;4.43;0.88;;;;;;;15.07;57.28;100647.81;4971907;28;20578;-65
2021/03/21 00:32:43;;;;;;;6.97;1.55;;;;;;;15.04;57.11;100638.97;4974250;28;20043;-65
2021/03/21 00:35:11;;;;;;;9.52;0.70;;;;;;;15.06;56.96;100643.41;4970053;28;20632;-64
2021/03/21 00:37:40;;;;;;;7.13;1.00;;;;;;;15.06;56.97;100635.41;4969471;28;20051;-65
2021/03/21 00:40:11;;;;;;;4.70;0.93;;;;;;;15.12;56.49;100630.06;4973376;28;20050;-64
2021/03/21 00:42:38;;;;;;;4.60;0.80;;;;;;;15.14;56.53;100636.28;4972839;28;20178;-64
2021/03/21 00:45:10;;;;;;;5.20;0.70;;;;;;;15.24;56.33;100630.88;4971361;28;20449;-64
2021/03/21 00:47:37;;;;;;;3.78;0.65;;;;;;;15.15;56.55;100640.72;4973139;28;20055;-64
2021/03/21 00:50:06;;;;;;;4.55;0.90;;;;;;;15.14;56.38;100648.69;4973123;28;20126;-64
2021/03/21 00:52:33;;;;;;;2.10;0.32;;;;;;;15.11;56.36;100630.94;4968716;28;20063;-64
2021/03/21 00:55:00;;;;;;;5.50;0.88;;;;;;;15.11;56.05;100640.72;4968300;28;20045;-65
2021/03/21 00:57:27;;;;;;;4.72;0.43;;;;;;;15.15;54.71;100632.72;4960445;28;20094;-64
2021/03/21 00:59:54;;;;;;;5.40;0.90;;;;;;;15.26;53.99;100627.34;4970341;28;20126;-64
2021/03/21 01:02:22;;;;;;;3.80;0.68;;;;;;;15.23;53.33;100624.69;4971553;28;20126;-64
2021/03/21 01:04:49;;;;;;;7.13;0.70;;;;;;;15.23;53.22;100618.50;4970214;28;20043;-64
2021/03/21 01:07:16;;;;;;;5.50;0.80;;;;;;;15.20;53.61;100615.84;4971300;28;20043;-64
2021/03/21 01:09:44;;;;;;;2.38;0.60;;;;;;;15.18;53.21;100612.31;4971819;28;20140;-65
2021/03/21 01:12:12;;;;;;;3.17;0.45;;;;;;;15.19;52.61;100609.66;4973088;28;20041;-64
2021/03/21 01:14:39;;;;;;;3.50;0.50;;;;;;;15.19;51.90;100604.31;4972473;28;20831;-65
2021/03/21 01:17:07;;;;;;;6.35;0.70;;;;;;;15.18;51.47;100609.66;4971820;28;20595;-65
2021/03/21 01:19:35;;;;;;;1.25;0.45;;;;;;;15.21;50.82;100607.00;4972217;28;20038;-64
2021/03/21 01:22:02;;;;;;;4.25;0.75;;;;;;;15.21;50.02;100610.53;4972126;28;20067;-64
2021/03/21 01:24:29;;;;;;;1.13;0.35;;;;;;;15.25;48.09;100608.72;4973200;28;20058;-65
2021/03/21 01:26:57;;;;;;;1.20;0.20;;;;;;;15.34;47.21;100612.22;4973877;28;20489;-64
2021/03/21 01:29:24;;;;;;;4.03;0.43;;;;;;;15.28;47.67;100604.28;4979466;28;20505;-64
2021/03/21 01:31:51;;;;;;;1.25;0.40;;;;;;;15.21;48.26;100601.66;4971175;28;20045;-64
2021/03/21 01:34:18;;;;;;;1.23;0.35;;;;;;;15.15;49.07;100602.59;4971832;28;20039;-65
2021/03/21 01:36:47;;;;;;;1.63;0.40;;;;;;;15.13;49.14;100596.38;4970014;28;20496;-64
2021/03/21 01:39:21;;;;;;;2.40;0.45;;;;;;;15.12;48.77;100583.97;4971401;28;20519;-64
2021/03/21 01:41:57;;;;;;;2.38;0.65;;;;;;;15.14;47.08;100580.44;4973042;28;20057;-64
2021/03/21 01:44:24;;;;;;;2.22;0.43;;;;;;;15.23;46.23;100582.13;4970829;28;20066;-64
2021/03/21 01:47:19;;;;;;;1.63;0.40;;;;;;;15.32;45.82;100574.09;4971651;28;20047;-64
2021/03/21 01:49:49;;;;;;;1.95;0.40;;;;;;;15.44;45.56;100583.75;4967749;28;20042;-64
2021/03/21 01:52:31;;;;;;;1.58;0.40;;;;;;;15.35;45.31;100579.41;4969653;28;20062;-65
2021/03/21 01:55:00;;;;;;;2.97;0.40;;;;;;;15.37;45.62;100574.94;4969027;28;20039;-64
2021/03/21 01:57:29;;;;;;;2.20;0.50;;;;;;;15.27;47.04;100572.38;4971049;28;20034;-64
2021/03/21 01:59:56;;;;;;;2.70;0.20;;;;;;;15.22;47.81;100564.44;4988894;28;20034;-64
2021/03/21 02:02:23;;;;;;;2.63;0.60;;;;;;;15.33;47.68;100570.56;4953794;28;20047;-64
2021/03/21 02:04:50;;;;;;;3.45;0.50;;;;;;;15.21;48.12;100567.09;4952827;28;20039;-64
2021/03/21 02:07:34;;;;;;;0.93;0.30;;;;;;;15.22;47.78;100571.53;4957397;28;20219;-64
2021/03/21 02:10:15;;;;;;;2.10;0.75;;;;;;;15.31;46.59;100567.00;4970984;28;20627;-64
2021/03/21 02:12:54;;;;;;;1.33;0.40;;;;;;;15.32;47.16;100578.53;4971359;28;20118;-64
2021/03/21 02:15:26;;;;;;;3.75;0.77;;;;;;;15.22;48.30;100563.56;4966456;28;20042;-65
2021/03/21 02:18:02;;;;;;;2.67;0.75;;;;;;;15.15;49.03;100579.53;4967432;28;20039;-64
2021/03/21 02:21:02;;;;;;;6.00;1.33;;;;;;;15.39;46.36;100590.91;4972000;28;20046;-64
2021/03/21 02:23:58;;;;;;;3.08;0.40;;;;;;;15.32;47.24;100589.19;4971263;28;20085;-64
2021/03/21 02:26:44;;;;;;;2.92;0.32;;;;;;;15.19;47.96;100584.81;4966297;28;20167;-64
2021/03/21 02:29:22;;;;;;;5.55;0.52;;;;;;;15.15;48.46;100581.31;4969421;28;20117;-64
2021/03/21 02:31:55;;;;;;;4.13;0.60;;;;;;;15.09;50.52;100574.28;4968385;28;20035;-64
2021/03/21 02:34:27;;;;;;;4.20;0.55;;;;;;;15.06;52.20;100574.28;4970191;28;20043;-64
2021/03/21 02:37:00;;;;;;;3.42;0.40;;;;;;;15.00;53.62;100576.97;4971694;28;20129;-64
2021/03/21 02:39:31;;;;;;;4.45;0.60;;;;;;;14.96;54.25;100572.56;4969451;28;20504;-64
2021/03/21 02:42:05;;;;;;;7.63;0.52;;;;;;;14.95;53.67;100569.91;4983880;28;20047;-64
2021/03/21 02:44:39;;;;;;;3.13;0.45;;;;;;;14.92;54.09;100569.91;4970385;28;20137;-64
2021/03/21 02:47:14;;;;;;;4.50;0.85;;;;;;;14.88;55.23;100566.41;4971297;28;20718;-65
2021/03/21 02:49:44;;;;;;;3.65;0.80;;;;;;;14.82;56.13;100566.44;4965742;28;20045;-64
2021/03/21 02:52:19;;;;;;;2.08;0.50;;;;;;;14.84;56.98;100569.94;4970146;28;20093;-64
2021/03/21 02:54:51;;;;;;;2.67;0.65;;;;;;;14.86;57.10;100573.50;4970314;28;20058;-64
2021/03/21 02:57:23;;;;;;;4.55;0.50;;;;;;;14.70;57.88;100571.81;4970464;28;20043;-64
2021/03/21 02:59:55;;;;;;;2.17;0.30;;;;;;;14.64;57.69;100559.41;4971382;28;20138;-64
2021/03/21 03:02:25;;;;;;;5.40;0.95;;;;;;;14.77;57.36;100560.22;4968707;28;20042;-64
2021/03/21 03:04:57;;;;;;;4.60;0.60;;;;;;;14.82;57.41;100550.50;4970026;28;20133;-64
2021/03/21 03:07:32;;;;;;;5.78;0.60;;;;;;;14.68;57.91;100547.00;4969771;28;20039;-64
2021/03/21 03:10:04;;;;;;;;;;;;;;;14.64;57.94;100548.78;4971213;28;20105;-64
2021/03/21 03:12:34;;;;;;;4.53;0.82;;;;;;;14.63;58.34;100543.50;4969504;28;19929;-64
2021/03/21 03:15:05;;;;;;;3.30;0.60;;;;;;;14.72;58.70;100544.31;4970613;28;20530;-64
2021/03/21 03:17:40;;;;;;;5.88;0.60;;;;;;;14.72;59.11;100546.09;4969947;28;20039;-64
2021/03/21 03:20:14;;;;;;;4.70;0.70;;;;;;;14.70;59.57;100540.78;4968068;28;20105;-65
2021/03/21 03:22:47;;;;;;;5.35;0.88;;;;;;;14.77;59.56;100544.28;4967814;28;20097;-64
2021/03/21 03:25:22;;;;;;;1.65;0.70;;;;;;;14.71;59.28;100541.66;4970417;28;20086;-64
2021/03/21 03:28:09;;;;;;;3.03;1.00;;;;;;;14.81;58.40;100543.41;4970750;28;20133;-65
2021/03/21 03:30:40;;;;;;;4.53;0.70;;;;;;;14.81;59.08;100537.19;4956644;28;20404;-64
2021/03/21 03:33:08;;;;;;;8.35;1.40;;;;;;;14.73;59.70;100543.44;4967739;28;20049;-64
2021/03/21 03:35:37;;;;;;;5.60;1.30;;;;;;;14.78;60.74;100540.75;4969947;28;20035;-64
2021/03/21 03:38:06;;;;;;;6.60;1.05;;;;;;;14.74;61.36;100550.53;4969409;28;20066;-65
2021/03/21 03:40:37;;;;;;;7.60;1.33;;;;;;;14.71;62.62;100542.56;4960790;28;20118;-64
2021/03/21 03:43:18;;;;;;;6.80;1.65;;;;;;;14.72;64.13;100532.81;4966827;28;20041;-64
2021/03/21 03:45:54;;;;;;;5.85;1.15;;;;;;;14.70;64.96;100529.31;4967735;28;20043;-65
2021/03/21 03:48:39;;;;;;;3.85;1.20;;;;;;;14.63;65.89;100540.84;4972524;28;20109;-64
2021/03/21 03:51:12;;;;;;;10.15;1.60;;;;;;;14.57;66.58;100536.41;4967105;28;20046;-65
2021/03/21 03:53:51;;;;;;;9.48;1.20;;;;;;;14.58;67.20;100545.28;4969863;28;20038;-65
2021/03/21 03:56:23;;;;;;;10.05;1.48;;;;;;;14.52;67.67;100538.22;4968128;28;20065;-65
2021/03/21 03:59:02;;;;;;;6.13;1.10;;;;;;;14.46;68.26;100535.59;4968531;28;20050;-65
2021/03/21 04:01:36;;;;;;;6.65;1.20;;;;;;;14.44;68.72;100539.16;4951612;28;20094;-65
2021/03/21 04:04:15;;;;;;;6.45;1.20;;;;;;;14.42;69.05;100532.97;4952579;28;20130;-64
2021/03/21 04:06:51;;;;;;;9.40;1.23;;;;;;;14.40;69.52;100532.06;4966220;28;20126;-64
2021/03/21 04:09:23;;;;;;;13.20;1.58;;;;;;;14.45;69.74;100538.25;4968777;28;20038;-64
2021/03/21 04:11:55;;;;;;;8.88;1.90;;;;;;;14.38;70.13;100528.53;4971055;28;20113;-64
2021/03/21 04:14:26;;;;;;;4.85;1.40;;;;;;;14.32;70.54;100526.75;4970157;28;20046;-64
2021/03/21 04:17:03;;;;;;;5.07;1.17;;;;;;;14.30;70.99;100537.41;4969855;28;20050;-65
2021/03/21 04:19:37;;;;;;;8.68;1.95;;;;;;;14.34;71.42;100540.91;4963355;28;20042;-64
2021/03/21 04:22:10;;;;;;;8.48;2.13;;;;;;;14.38;71.68;100541.81;4968593;28;20480;-64
2021/03/21 04:24:42;;;;;;;8.48;1.83;;;;;;;14.42;71.88;100540.94;4969476;28;20066;-64
2021/03/21 04:27:16;;;;;;;5.45;1.70;;;;;;;14.45;71.99;100535.59;4964304;28;20041;-64
2021/03/21 04:29:49;;;;;;;13.23;2.03;;;;;;;14.54;71.96;100544.41;4974287;28;20039;-64
2021/03/21 04:32:22;;;;;;;8.23;2.10;;;;;;;14.53;72.16;100539.97;4972678;28;20181;-64
2021/03/21 04:34:53;;;;;;;13.05;2.30;;;;;;;14.53;72.25;100544.41;4972100;28;20054;-64
2021/03/21 04:37:23;;;;;;;13.85;2.20;;;;;;;14.59;72.41;100552.34;4972755;28;20059;-65
2021/03/21 04:39:54;;;;;;;10.45;2.30;;;;;;;14.62;72.59;100541.72;4972892;28;20054;-65
2021/03/21 04:42:27;;;;;;;9.15;2.15;;;;;;;14.68;72.76;100539.03;4970550;28;20057;-64
2021/03/21 04:45:00;;;;;;;9.10;1.67;;;;;;;14.71;72.77;100534.59;4973041;28;20138;-64
2021/03/21 04:47:33;;;;;;;10.32;2.08;;;;;;;14.80;72.59;100533.66;4973659;28;20122;-65
2021/03/21 04:50:01;;;;;;;4.43;1.60;;;;;;;14.95;72.32;100546.00;4972012;28;20035;-64
2021/03/21 04:52:39;;;;;;;13.35;1.98;;;;;;;15.09;71.73;100545.03;4972670;28;20134;-64
2021/03/21 04:55:22;;;;;;;8.18;1.30;;;;;;;15.22;71.60;100551.13;4971288;28;20043;-65
2021/03/21 04:57:56;;;;;;;11.27;1.73;;;;;;;15.37;71.22;100542.13;4972955;28;20049;-64
2021/03/21 05:00:26;;;;;;;;;;;;;;;15.45;70.82;100541.19;4971468;28;20134;-64
2021/03/21 05:02:58;;;;;;;8.85;1.60;;;;;;;15.53;70.87;100533.19;4972645;28;19956;-64
2021/03/21 05:05:30;;;;;;;5.90;1.15;;;;;;;15.63;70.85;100523.34;4973273;28;20728;-64
2021/03/21 05:08:02;;;;;;;8.70;1.70;;;;;;;15.72;70.52;100526.81;4970319;28;20039;-64
2021/03/21 05:10:34;;;;;;;7.20;1.70;;;;;;;15.83;70.06;100524.03;4971281;28;20066;-65
2021/03/21 05:13:05;;;;;;;5.63;1.23;;;;;;;15.94;69.89;100516.84;4972538;28;20074;-64
2021/03/21 05:15:41;;;;;;;8.25;1.80;;;;;;;16.07;68.98;100506.94;4967361;28;20137;-64
2021/03/21 05:18:25;;;;;;;7.13;1.52;;;;;;;16.20;68.63;100500.59;4962121;28;20121;-64
2021/03/21 05:21:02;;;;;;;8.88;1.90;;;;;;;16.40;68.00;100485.25;4971531;28;20410;-64
2021/03/21 05:23:36;;;;;;;6.47;1.23;;;;;;;16.43;67.38;100482.53;4968347;28;20471;-65
2021/03/21 05:26:09;;;;;;;8.38;1.40;;;;;;;16.48;67.36;100482.47;4971487;28;20133;-65
2021/03/21 05:29:01;;;;;;;8.40;1.65;;;;;;;16.59;67.30;100478.78;4973345;28;20049;-64
2021/03/21 05:31:29;;;;;;;6.55;1.77;;;;;;;16.69;67.08;100482.22;4970772;28;20118;-65
2021/03/21 05:33:57;;;;;;;11.85;2.63;;;;;;;16.81;65.76;100460.69;4969762;28;20082;-64
2021/03/21 05:36:39;;;;;;;7.40;2.13;;;;;;;16.92;65.16;100464.13;4971552;28;20126;-65
2021/03/21 05:39:20;;;;;;;8.45;1.85;;;;;;;16.96;64.89;100455.16;4969143;28;20062;-64
2021/03/21 05:42:38;;;;;;;8.02;1.58;;;;;;;17.05;64.76;100446.13;4964632;28;20543;-64
2021/03/21 05:45:44;;;;;;;5.60;1.30;;;;;;;17.20;64.90;100448.53;4958643;28;20117;-64
2021/03/21 05:48:51;;;;;;;4.72;0.80;;;;;;;17.33;64.69;100443.88;4971306;28;20590;-65
2021/03/21 05:51:52;;;;;;;11.15;1.80;;;;;;;17.52;63.79;100430.16;4964052;28;20474;-64
2021/03/21 05:54:39;;;;;;;7.93;1.58;;;;;;;17.52;63.76;100398.16;4969086;28;20046;-64
2021/03/21 05:57:23;;;;;;;7.35;1.20;;;;;;;17.64;63.72;100407.78;4970293;28;20101;-64
2021/03/21 06:00:29;;;;;;;8.75;1.92;;;;;;;17.80;63.07;100419.91;4971839;28;20038;-65
2021/03/21 06:03:11;;;;;;;;;;;;;;;17.83;63.04;100410.97;4971054;28;20065;-64
2021/03/21 06:06:13;;;;;;;10.40;2.10;;;;;;;17.95;62.80;100394.69;4965898;28;20029;-65
2021/03/21 06:08:57;;;;;;;8.75;1.88;;;;;;;18.09;62.77;100410.44;4965699;28;20504;-65
2021/03/21 06:11:41;;;;;;;11.87;2.30;;;;;;;18.13;62.82;100399.63;4966085;28;20117;-64
2021/03/21 06:14:41;;;;;;;12.38;2.97;;;;;;;18.19;62.54;100420.88;4962759;28;20053;-65
2021/03/21 06:17:25;;;;;;;10.35;2.50;;;;;;;18.27;62.66;100426.94;4944459;28;20035;-65
2021/03/21 06:20:28;;;;;;;6.97;2.67;;;;;;;18.36;61.94;100428.56;4961891;28;20423;-65
2021/03/21 06:23:10;;;;;;;12.77;2.58;;;;;;;18.57;61.44;100435.25;4930345;28;20052;-65
2021/03/21 06:26:03;;;;;;;11.10;2.63;;;;;;;18.58;61.44;100427.19;4963408;28;20062;-65
2021/03/21 06:28:57;;;;;;;7.75;2.55;;;;;;;18.61;61.41;100432.47;4968564;28;20031;-64
2021/03/21 06:31:49;;;;;;;7.88;1.92;;;;;;;18.79;61.17;100438.31;4971377;28;20038;-65
2021/03/21 06:34:26;;;;;;;10.60;3.08;;;;;;;19.05;60.25;100423.41;4971523;28;20649;-64
2021/03/21 06:36:59;;;;;;;7.05;1.75;;;;;;;19.04;59.48;100420.75;4968980;28;20058;-65
2021/03/21 06:39:49;;;;;;;8.35;2.88;;;;;;;19.16;59.65;100432.97;4971303;28;20118;-64
2021/03/21 06:42:43;;;;;;;21.38;9.20;;;;;;;19.36;59.12;100442.22;4972024;28;20074;-65
2021/03/21 06:45:55;;;;;;;10.98;3.38;;;;;;;19.48;58.16;100443.78;4970778;28;20185;-65
2021/03/21 06:49:06;;;;;;;15.00;3.42;;;;;;;19.56;57.88;100420.31;4970571;28;20050;-65
2021/03/21 06:52:05;;;;;;;9.60;2.20;;;;;;;19.63;57.20;100435.31;4942637;28;20138;-64
2021/03/21 06:54:38;;;;;;;11.27;2.55;;;;;;;19.78;57.41;100436.72;4970659;28;20038;-65
2021/03/21 06:57:39;;;;;;;13.18;2.83;;;;;;;20.00;56.58;100459.31;4969569;28;20070;-66
2021/03/21 07:00:39;;;;;;;9.55;3.55;;;;;;;19.98;56.46;100437.03;4971131;28;20051;-65
2021/03/21 07:03:42;;;;;;;9.10;2.38;;;;;;;20.09;56.07;100442.97;4961742;28;20118;-65
2021/03/21 07:06:46;;;;;;;13.48;2.70;;;;;;;20.21;56.62;100436.41;4970540;28;20110;-64
2021/03/21 07:09:51;;;;;;;11.40;2.47;;;;;;;20.37;55.49;100427.00;4970442;28;20050;-65
2021/03/21 07:12:42;;;;;;;10.32;2.25;;;;;;;20.55;55.96;100422.84;4969293;28;20055;-65
2021/03/21 07:15:39;;;;;;;12.35;2.58;;;;;;;20.78;54.89;100422.16;4970834;28;20051;-65
2021/03/21 07:19:02;;;;;;;9.43;2.58;;;;;;;20.86;54.67;100423.69;4970727;28;20045;-65
2021/03/21 07:22:09;;;;;;;12.32;3.40;;;;;;;20.85;54.70;100426.41;4910808;29;20181;-65
2021/03/21 07:24:59;;;;;;;11.40;3.30;;;;;;;20.85;54.54;100431.78;4907641;29;20452;-64
2021/03/21 07:27:59;;;;;;;17.60;4.07;;;;;;;20.89;54.68;100431.63;4957203;28;20043;-65
2021/03/21 07:30:41;;;;;;;10.25;3.60;;;;;;;20.99;54.19;100430.41;4968359;28;20118;-65
2021/03/21 07:33:29;;;;;;;11.80;2.28;;;;;;;21.09;53.31;100428.28;4970927;28;20039;-66
2021/03/21 07:36:22;;;;;;;8.40;2.60;;;;;;;21.19;53.32;100426.22;4962670;28;20098;-65
2021/03/21 07:39:29;;;;;;;7.40;1.80;;;;;;;21.30;52.82;100424.94;4965509;28;20039;-65
2021/03/21 07:42:08;;;;;;;8.52;2.35;;;;;;;21.32;52.60;100420.41;4968850;28;20067;-65
2021/03/21 07:45:00;;;;;;;8.63;1.60;;;;;;;21.38;52.13;100414.81;4969931;28;20113;-65
2021/03/21 07:47:51;;;;;;;8.38;3.05;;;;;;;21.41;51.76;100392.31;4970191;28;20449;-65
2021/03/21 07:50:35;;;;;;;11.15;2.40;;;;;;;21.44;52.60;100430.72;4951477;28;20045;-64
2021/03/21 07:53:16;;;;;;;8.40;2.23;;;;;;;21.54;51.98;100425.00;4956240;28;20039;-65
2021/03/21 07:55:50;;;;;;;5.75;1.83;;;;;;;21.64;51.80;100426.44;4959424;28;20301;-65
2021/03/21 07:58:27;;;;;;;6.53;2.53;;;;;;;21.69;51.70;100440.59;4967640;28;20085;-65
2021/03/21 08:00:55;;;;;;;13.70;3.33;;;;;;;21.71;52.29;100411.88;4965325;28;20035;-65
2021/03/21 08:03:35;;;;;;;9.25;2.72;;;;;;;21.85;51.77;100436.44;4973170;28;20046;-65
2021/03/21 08:06:06;;;;;;;9.18;3.13;;;;;;;21.90;52.17;100428.22;4972661;28;20046;-64
2021/03/21 08:08:38;;;;;;;10.57;2.63;;;;;;;22.10;52.27;100441.84;4971583;28;20045;-65
2021/03/21 08:11:07;;;;;;;12.23;5.22;;;;;;;22.25;52.13;100441.28;4973131;28;20538;-64
2021/03/21 08:13:44;;;;;;;8.05;2.22;;;;;;;22.29;52.08;100426.75;4959041;28;20069;-65
2021/03/21 08:16:15;;;;;;;13.75;4.68;;;;;;;22.48;52.46;100440.38;4967976;28;20130;-65
2021/03/21 08:18:45;;;;;;;15.50;6.90;;;;;;;22.65;51.10;100424.44;4955277;28;20432;-64
2021/03/21 08:21:17;;;;;;;9.13;3.13;;;;;;;22.73;50.88;100433.13;4954739;28;20039;-65
2021/03/21 08:23:49;;;;;;;17.88;7.40;;;;;;;22.90;50.77;100425.28;4965085;28;20465;-65
2021/03/21 08:26:26;;;;;;;12.55;4.22;;;;;;;22.94;50.46;100426.03;4970060;28;20055;-65
2021/03/21 08:29:12;;;;;;;12.55;5.82;;;;;;;22.93;49.88;100425.13;4969993;28;20045;-65
2021/03/21 08:31:42;;;;;;;9.98;2.83;;;;;;;22.85;50.22;100421.88;4974108;28;20035;-65
2021/03/21 08:34:35;;;;;;;8.88;3.17;;;;;;;23.01;50.12;100417.63;4972937;28;20055;-65
2021/03/21 08:37:13;;;;;;;9.70;3.42;;;;;;;22.96;49.98;100408.88;4971924;28;20050;-66
2021/03/21 08:39:44;;;;;;;10.20;2.45;;;;;;;23.00;50.37;100415.88;4955550;28;20043;-66
2021/03/21 08:42:29;;;;;;;9.32;3.30;;;;;;;22.96;49.87;100400.81;4955179;28;20087;-65
2021/03/21 08:45:07;;;;;;;7.25;2.05;;;;;;;22.97;49.85;100410.59;4969491;28;20043;-65
2021/03/21 08:47:34;;;;;;;13.57;2.47;;;;;;;23.03;50.34;100406.81;4962255;28;20071;-65
2021/03/21 08:50:04;;;;;;;8.73;2.55;;;;;;;23.18;49.78;100407.97;4957205;28;20047;-65
2021/03/21 08:52:33;;;;;;;12.90;2.70;;;;;;;23.05;49.72;100400.41;4954297;28;20055;-65
2021/03/21 08:55:03;;;;;;;9.63;2.28;;;;;;;23.15;49.82;100408.09;4954367;28;20048;-65
2021/03/21 08:57:33;;;;;;;12.63;3.03;;;;;;;23.26;49.45;100400.44;4966237;28;20043;-65
2021/03/21 09:00:29;;;;;;;10.85;2.85;;;;;;;23.37;49.16;100387.38;4973717;28;20046;-65
2021/03/21 09:02:57;;;;;;;10.10;3.05;;;;;;;23.36;48.96;100394.63;4960214;28;20040;-65
2021/03/21 09:05:25;;;;;;;14.25;2.78;;;;;;;23.37;49.25;100396.34;4953391;28;20114;-65
2021/03/21 09:08:06;;;;;;;10.38;2.55;;;;;;;23.52;48.76;100381.38;4953494;28;20062;-65
2021/03/21 09:10:34;;;;;;;12.85;3.30;;;;;;;23.63;49.07;100387.16;4953447;28;20042;-65
2021/03/21 09:13:19;;;;;;;9.40;2.92;;;;;;;23.73;48.76;100393.03;4952598;28;20536;-65
2021/03/21 09:16:01;;;;;;;12.70;3.80;;;;;;;23.69;48.24;100372.56;4947549;28;20122;-65
2021/03/21 09:18:30;;;;;;;10.82;3.03;;;;;;;23.60;48.54;100376.53;4945787;28;20114;-64
2021/03/21 09:21:19;;;;;;;10.75;2.45;;;;;;;23.63;48.32;100378.22;4953805;28;20127;-64
2021/03/21 09:23:49;;;;;;;11.30;3.80;;;;;;;23.65;48.56;100368.22;4954393;28;20040;-65
2021/03/21 09:26:30;;;;;;;12.02;2.80;;;;;;;23.71;48.15;100349.09;4959559;28;20085;-64
2021/03/21 09:29:01;;;;;;;11.27;2.40;;;;;;;23.68;48.17;100360.03;4963356;28;20038;-65
2021/03/21 09:31:30;;;;;;;11.25;3.03;;;;;;;23.71;48.24;100349.97;4957860;28;20047;-65
2021/03/21 09:34:02;;;;;;;9.70;3.00;;;;;;;23.70;48.80;100347.31;4972442;28;20057;-64
2021/03/21 09:36:35;;;;;;;13.45;2.63;;;;;;;23.68;48.79;100336.63;4964528;28;20087;-65
2021/03/21 09:39:07;;;;;;;10.05;2.65;;;;;;;23.70;49.07;100348.19;4973017;28;20122;-64
2021/03/21 09:41:33;;;;;;;11.65;2.35;;;;;;;23.72;48.93;100335.53;4958005;28;20114;-64
2021/03/21 09:44:06;;;;;;;10.80;2.97;;;;;;;23.74;49.24;100314.78;4966929;28;20425;-65
2021/03/21 09:46:48;;;;;;;15.13;3.97;;;;;;;23.73;48.45;100299.56;4955147;28;20043;-65
2021/03/21 09:49:22;;;;;;;13.23;3.55;;;;;;;23.58;48.88;100327.19;4955902;28;20047;-65
2021/03/21 09:51:53;;;;;;;8.52;2.05;;;;;;;23.68;49.09;100328.56;4961267;28;20039;-64
2021/03/21 09:54:43;;;;;;;9.27;3.03;;;;;;;23.77;48.51;100311.94;4953909;28;20043;-64
2021/03/21 09:57:41;;;;;;;11.30;2.80;;;;;;;23.72;48.71;100300.50;4962074;28;20130;-65
2021/03/21 10:00:13;;;;;;;13.93;3.60;;;;;;;23.72;48.32;100311.28;4953259;28;20039;-65
2021/03/21 10:02:46;;;;;;;14.55;3.78;;;;;;;23.67;48.28;100297.16;4956708;28;20047;-64
2021/03/21 10:05:26;;;;;;;8.43;2.55;;;;;;;23.66;48.30;100310.69;4960671;28;20039;-65
2021/03/21 10:08:03;;;;;;;11.00;2.90;;;;;;;23.75;48.23;100296.78;4954476;28;20098;-65
2021/03/21 10:10:36;;;;;;;9.57;2.10;;;;;;;23.75;48.09;100299.50;4959143;28;20142;-65
2021/03/21 10:13:03;;;;;;;11.45;2.38;;;;;;;23.77;48.22;100289.50;4959697;28;20031;-64
2021/03/21 10:15:31;;;;;;;13.98;3.22;;;;;;;23.82;48.36;100288.34;4971943;28;20125;-65
2021/03/21 10:18:00;;;;;;;14.40;3.60;;;;;;;23.82;48.55;100247.91;4972058;28;20436;-65
2021/03/21 10:21:15;;;;;;;13.48;2.70;;;;;;;23.84;48.03;100274.78;4967137;28;20047;-65
2021/03/21 10:24:31;;;;;;;9.90;2.40;;;;;;;23.72;48.35;100268.16;4953445;28;20050;-65
2021/03/21 10:27:41;;;;;;;12.88;3.95;;;;;;;23.89;48.61;100250.31;4964127;28;20288;-64
2021/03/21 10:30:16;;;;;;;11.43;3.22;;;;;;;23.99;48.19;100247.09;4952846;28;20043;-65
2021/03/21 10:32:45;;;;;;;8.55;2.92;;;;;;;23.98;48.25;100234.56;4958833;28;20118;-64
2021/03/21 10:35:54;;;;;;;6.50;2.75;;;;;;;24.07;47.80;100235.94;4978474;28;20518;-65
2021/03/21 10:38:45;;;;;;;15.05;5.95;;;;;;;24.10;47.99;100251.97;4969897;28;20093;-64
2021/03/21 10:41:33;;;;;;;12.55;3.80;;;;;;;24.06;47.57;100223.41;4966309;28;20042;-64
2021/03/21 10:44:01;;;;;;;14.85;5.07;;;;;;;23.98;47.43;100212.09;4960376;28;20069;-65
2021/03/21 10:46:54;;;;;;;13.63;3.13;;;;;;;23.98;48.11;100220.19;4967490;28;20121;-64
2021/03/21 10:49:50;;;;;;;12.80;2.80;;;;;;;23.99;47.84;100212.03;4971268;28;20039;-64
2021/03/21 10:52:26;;;;;;;9.05;2.97;;;;;;;23.80;48.19;100181.53;4971398;28;20046;-65
2021/03/21 10:55:35;;;;;;;10.68;2.78;;;;;;;23.73;48.41;100196.25;4971866;28;20043;-65
2021/03/21 10:58:24;;;;;;;11.80;3.13;;;;;;;23.73;48.63;100175.56;4949213;28;20043;-64
2021/03/21 11:01:27;;;;;;;8.60;2.50;;;;;;;23.80;48.51;100181.53;4971369;28;20130;-65
2021/03/21 11:04:17;;;;;;;8.27;3.15;;;;;;;23.82;48.34;100187.72;4971000;28;20443;-64
2021/03/21 11:07:00;;;;;;;12.70;3.15;;;;;;;23.72;48.10;100173.81;4971264;28;20191;-65
2021/03/21 11:09:32;;;;;;;10.32;2.58;;;;;;;23.70;48.22;100169.41;4970850;28;20043;-65
2021/03/21 11:12:02;;;;;;;12.13;3.78;;;;;;;23.78;47.99;100160.03;4971792;28;20031;-65
2021/03/21 11:14:33;;;;;;;13.77;2.63;;;;;;;23.88;47.89;100157.78;4974333;28;20039;-65
2021/03/21 11:17:02;;;;;;;11.35;3.85;;;;;;;23.92;48.07;100158.47;4972024;28;20570;-64
2021/03/21 11:19:31;;;;;;;11.18;2.80;;;;;;;23.98;47.88;100145.56;4951780;28;20135;-65
2021/03/21 11:21:59;;;;;;;11.38;2.65;;;;;;;23.95;47.52;100152.94;4970258;28;20574;-65
2021/03/21 11:24:33;;;;;;;14.13;3.25;;;;;;;24.01;47.75;100133.78;4970412;28;20051;-65
2021/03/21 11:27:01;;;;;;;;;;;;;;;24.11;47.15;100137.72;4972265;28;20129;-65
2021/03/21 11:29:35;;;;;;;9.70;3.63;;;;;;;24.16;47.21;100119.50;4955864;28;20264;-65
2021/03/21 11:32:15;;;;;;;11.50;4.75;;;;;;;24.24;46.56;100114.63;4952048;28;20150;-64
2021/03/21 11:34:44;;;;;;;13.32;4.18;;;;;;;24.27;46.49;100095.59;4967243;28;20070;-65
2021/03/21 11:37:15;;;;;;;10.88;3.38;;;;;;;24.41;46.27;100084.09;4971812;28;20077;-65
2021/03/21 11:39:48;;;;;;;10.02;3.30;;;;;;;24.42;45.68;100070.50;4960119;28;20516;-64
2021/03/21 11:42:23;;;;;;;9.88;2.10;;;;;;;24.48;45.52;100086.34;4956284;28;20036;-65
2021/03/21 11:44:53;;;;;;;11.20;2.50;;;;;;;24.53;45.02;100080.75;4955725;29;20092;-65
2021/03/21 11:47:29;;;;;;;10.70;3.72;;;;;;;24.63;44.68;100066.66;4955051;29;20039;-65
2021/03/21 11:49:58;;;;;;;13.82;3.97;;;;;;;24.71;44.45;100054.59;4969445;28;20071;-65
2021/03/21 11:52:26;;;;;;;13.07;2.80;;;;;;;24.80;43.81;100056.81;4974614;28;20059;-65
2021/03/21 11:54:56;;;;;;;12.20;4.30;;;;;;;24.81;43.44;100047.75;4974921;28;20042;-65
2021/03/21 11:57:44;;;;;;;14.07;6.00;;;;;;;24.91;43.14;100038.22;4974271;28;20097;-65
2021/03/21 12:00:20;;;;;;;9.75;2.92;;;;;;;24.95;43.07;100039.78;4939972;28;20058;-65
2021/03/21 12:02:57;;;;;;;8.80;3.22;;;;;;;25.05;42.20;100023.94;4955096;29;20094;-65
2021/03/21 12:05:27;;;;;;;11.63;3.47;;;;;;;25.00;43.43;100033.19;4954122;29;20539;-66
2021/03/21 12:08:07;;;;;;;12.50;3.13;;;;;;;25.02;43.48;100036.66;4955325;28;20039;-66
2021/03/21 12:10:39;;;;;;;14.88;3.75;;;;;;;25.05;43.19;100030.22;4974012;28;20558;-66
2021/03/21 12:13:26;;;;;;;16.63;6.40;;;;;;;25.04;43.28;100025.75;4974079;28;20043;-65